createdAt,value
2023-02-18T00:00:30.844Z,18.45
2023-02-18T00:02:57.622Z,17.42
2023-02-18T00:05:25.796Z,19.90
2023-02-18T00:07:52.532Z,19.70
2023-02-18T00:10:19.742Z,18.35
2023-02-18T00:12:46.973Z,13.07
2023-02-18T00:15:14.289Z,19.48
2023-02-18T00:17:41.065Z,18.27
2023-02-18T00:20:08.520Z,14.98
2023-02-18T00:22:36.866Z,18.98
2023-02-18T00:25:03.694Z,18.67
2023-02-18T00:27:30.434Z,17.67
2023-02-18T00:29:58.429Z,19.63
2023-02-18T00:32:25.315Z,19.85
2023-02-18T00:34:52.078Z,16.67
2023-02-18T00:37:18.874Z,19.00
2023-02-18T00:39:46.949Z,18.67
2023-02-18T00:42:13.694Z,10.30
2023-02-18T00:44:40.647Z,18.73
2023-02-18T00:47:07.367Z,19.58
2023-02-18T00:49:34.098Z,21.50
2023-02-18T00:52:00.893Z,20.90
2023-02-18T00:54:27.677Z,20.40
2023-02-18T00:56:55.832Z,21.25
2023-02-18T00:59:22.654Z,16.58
2023-02-18T01:01:49.521Z,19.90
2023-02-18T01:04:16.288Z,21.27
2023-02-18T01:06:43.051Z,21.58
2023-02-18T01:09:10.386Z,17.85
2023-02-18T01:11:37.395Z,22.45
2023-02-18T01:14:05.578Z,19.80
2023-02-18T01:16:32.350Z,19.92
2023-02-18T01:18:59.355Z,21.95
2023-02-18T01:21:26.400Z,22.50
2023-02-18T01:23:53.192Z,22.95
2023-02-18T01:26:20.062Z,22.13
2023-02-18T01:28:46.829Z,21.67
2023-02-18T01:31:16.781Z,22.25
2023-02-18T01:33:44.043Z,23.80
2023-02-18T01:36:13.796Z,24.05
2023-02-18T01:38:40.989Z,22.95
2023-02-18T01:41:07.809Z,23.65
2023-02-18T01:43:34.991Z,21.75
2023-02-18T01:46:12.090Z,24.17
2023-02-18T01:48:42.985Z,21.00
2023-02-18T01:51:14.052Z,25.45
2023-02-18T01:53:48.524Z,25.40
2023-02-18T01:56:23.273Z,23.67
2023-02-18T01:58:51.578Z,23.60
2023-02-18T02:01:18.508Z,15.85
2023-02-18T02:03:46.611Z,25.13
2023-02-18T02:06:17.456Z,26.27
2023-02-18T02:08:47.743Z,19.45
2023-02-18T02:11:24.559Z,26.48
2023-02-18T02:14:16.127Z,25.17
2023-02-18T02:16:53.221Z,22.60
2023-02-18T02:20:02.345Z,22.95
2023-02-18T02:23:00.883Z,18.65
2023-02-18T02:25:47.020Z,25.23
2023-02-18T02:28:41.714Z,25.52
2023-02-18T02:31:48.712Z,25.05
2023-02-18T02:34:45.711Z,24.30
2023-02-18T02:37:18.509Z,23.52
2023-02-18T02:39:57.556Z,22.25
2023-02-18T02:42:35.330Z,19.92
2023-02-18T02:45:09.738Z,22.55
2023-02-18T02:47:43.975Z,24.00
2023-02-18T02:50:17.303Z,18.60
2023-02-18T02:52:47.500Z,22.55
2023-02-18T02:55:14.457Z,22.45
2023-02-18T02:57:47.660Z,20.65
2023-02-18T03:00:18.330Z,22.65
2023-02-18T03:03:02.397Z,21.58
2023-02-18T03:05:44.999Z,18.58
2023-02-18T03:08:30.117Z,21.48
2023-02-18T03:11:03.309Z,15.38
2023-02-18T03:13:46.161Z,19.48
2023-02-18T03:16:21.849Z,19.77
2023-02-18T03:18:54.130Z,19.52
2023-02-18T03:21:26.101Z,15.68
2023-02-18T03:23:56.289Z,18.20
2023-02-18T03:26:25.404Z,17.02
2023-02-18T03:28:54.707Z,13.75
2023-02-18T03:31:26.180Z,13.95
2023-02-18T03:33:59.395Z,11.68
2023-02-18T03:36:28.566Z,12.40
2023-02-18T03:38:59.371Z,11.07
2023-02-18T03:41:26.147Z,13.85
2023-02-18T03:43:53.209Z,11.45
2023-02-18T03:46:20.300Z,15.48
2023-02-18T03:48:48.290Z,15.30
2023-02-18T03:51:15.042Z,16.38
2023-02-18T03:53:45.182Z,17.30
2023-02-18T03:56:12.062Z,18.23
2023-02-18T03:58:38.950Z,14.95
2023-02-18T04:01:06.026Z,15.60
2023-02-18T04:03:33.033Z,13.55
2023-02-18T04:06:00.847Z,11.60
2023-02-18T04:08:27.592Z,13.60
2023-02-18T04:10:55.673Z,13.40
2023-02-18T04:13:22.905Z,12.83
2023-02-18T04:15:50.520Z,12.52
2023-02-18T04:18:17.948Z,11.15
2023-02-18T04:20:45.301Z,9.90
2023-02-18T04:23:12.206Z,11.60
2023-02-18T04:25:39.294Z,9.60
2023-02-18T04:28:07.446Z,7.70
2023-02-18T04:30:34.337Z,7.40
2023-02-18T04:33:01.131Z,7.72
2023-02-18T04:35:27.907Z,8.43
2023-02-18T04:37:55.108Z,6.90
2023-02-18T04:40:21.826Z,7.43
2023-02-18T04:42:48.933Z,8.80
2023-02-18T04:45:17.239Z,6.50
2023-02-18T04:47:44.023Z,8.70
2023-02-18T04:50:11.351Z,6.97
2023-02-18T04:52:38.194Z,9.02
2023-02-18T04:55:05.517Z,7.63
2023-02-18T04:57:32.286Z,7.82
2023-02-18T04:59:59.037Z,6.25
2023-02-18T05:02:27.204Z,7.00
2023-02-18T05:04:53.954Z,6.53
2023-02-18T05:07:20.721Z,8.40
2023-02-18T05:09:47.544Z,8.63
2023-02-18T05:12:14.256Z,6.15
2023-02-18T05:14:41.034Z,4.82
2023-02-18T05:17:08.282Z,6.40
2023-02-18T05:19:36.386Z,4.85
2023-02-18T05:22:03.147Z,5.80
2023-02-18T05:24:29.892Z,4.13
2023-02-18T05:26:57.060Z,4.20
2023-02-18T05:29:23.816Z,3.35
2023-02-18T05:31:51.712Z,4.07
2023-02-18T05:34:18.750Z,4.65
2023-02-18T05:36:46.963Z,4.30
2023-02-18T05:39:13.695Z,3.78
2023-02-18T05:41:40.392Z,3.65
2023-02-18T05:44:07.135Z,4.05
2023-02-18T05:46:34.035Z,3.55
2023-02-18T05:49:00.810Z,3.42
2023-02-18T05:51:27.645Z,2.97
2023-02-18T05:53:55.732Z,4.30
2023-02-18T05:56:22.509Z,4.07
2023-02-18T05:58:49.556Z,3.15
2023-02-18T06:01:16.815Z,3.65
2023-02-18T06:03:43.651Z,3.03
2023-02-18T06:06:10.956Z,3.13
2023-02-18T06:08:37.919Z,3.10
2023-02-18T06:11:06.094Z,3.50
2023-02-18T06:13:32.834Z,3.50
2023-02-18T06:15:59.650Z,3.13
2023-02-18T06:18:26.524Z,3.45
2023-02-18T06:20:53.265Z,2.88
2023-02-18T06:23:20.099Z,2.42
2023-02-18T06:25:48.796Z,3.15
2023-02-18T06:28:18.428Z,4.57
2023-02-18T06:30:45.429Z,2.97
2023-02-18T06:33:12.348Z,3.75
2023-02-18T06:35:39.609Z,4.32
2023-02-18T06:38:06.936Z,4.47
2023-02-18T06:40:33.932Z,5.00
2023-02-18T06:43:00.680Z,5.60
2023-02-18T06:45:28.808Z,3.65
2023-02-18T06:47:55.565Z,4.57
2023-02-18T06:50:22.361Z,5.25
2023-02-18T06:52:49.180Z,5.60
2023-02-18T06:55:15.959Z,3.83
2023-02-18T06:57:42.716Z,5.60
2023-02-18T07:00:10.124Z,5.03
2023-02-18T07:02:38.207Z,6.55
2023-02-18T07:05:05.485Z,6.13
2023-02-18T07:07:32.205Z,4.55
2023-02-18T07:09:58.963Z,5.32
2023-02-18T07:12:26.668Z,6.10
2023-02-18T07:14:53.432Z,6.63
2023-02-18T07:17:20.253Z,5.28
2023-02-18T07:19:48.466Z,5.47
2023-02-18T07:22:16.508Z,5.25
2023-02-18T07:24:43.485Z,5.50
2023-02-18T07:27:10.557Z,4.45
2023-02-18T07:29:37.352Z,4.55
2023-02-18T07:32:04.546Z,6.25
2023-02-18T07:34:31.304Z,6.38
2023-02-18T07:36:59.421Z,7.63
2023-02-18T07:39:26.200Z,8.00
2023-02-18T07:41:53.029Z,6.82
2023-02-18T07:44:19.757Z,8.25
2023-02-18T07:46:48.372Z,7.75
2023-02-18T07:49:15.459Z,7.30
2023-02-18T07:51:42.230Z,7.38
2023-02-18T07:54:10.330Z,8.05
2023-02-18T07:56:37.129Z,5.30
2023-02-18T07:59:03.966Z,7.10
2023-02-18T08:01:30.702Z,5.78
2023-02-18T08:03:58.616Z,6.60
2023-02-18T08:06:28.157Z,8.20
2023-02-18T08:08:54.896Z,6.57
2023-02-18T08:11:23.011Z,8.07
2023-02-18T08:13:49.828Z,8.03
2023-02-18T08:16:17.582Z,8.65
2023-02-18T08:18:44.551Z,8.75
2023-02-18T08:21:11.311Z,9.20
2023-02-18T08:23:38.067Z,8.90
2023-02-18T08:26:05.283Z,6.70
2023-02-18T08:28:33.504Z,6.43
2023-02-18T08:31:00.848Z,7.40
2023-02-18T08:33:28.908Z,7.05
2023-02-18T08:35:57.506Z,6.88
2023-02-18T08:38:25.239Z,5.55
2023-02-18T08:41:01.191Z,6.53
2023-02-18T08:43:27.966Z,6.30
2023-02-18T08:45:57.823Z,5.43
2023-02-18T08:48:25.082Z,5.72
2023-02-18T08:50:51.965Z,6.32
2023-02-18T08:53:19.195Z,5.43
2023-02-18T08:55:46.180Z,4.55
2023-02-18T08:58:13.242Z,5.25
2023-02-18T09:00:41.802Z,4.20
2023-02-18T09:03:12.381Z,3.88
2023-02-18T09:05:39.523Z,4.30
2023-02-18T09:08:06.275Z,4.55
2023-02-18T09:10:33.069Z,3.63
2023-02-18T09:12:59.807Z,3.60
2023-02-18T09:15:26.546Z,4.30
2023-02-18T09:17:53.646Z,4.05
2023-02-18T09:20:21.825Z,3.15
2023-02-18T09:22:48.561Z,2.60
2023-02-18T09:25:15.398Z,3.15
2023-02-18T09:27:42.339Z,2.15
2023-02-18T09:30:09.610Z,3.95
2023-02-18T09:32:36.389Z,2.88
2023-02-18T09:35:04.286Z,2.03
2023-02-18T09:37:32.748Z,2.17
2023-02-18T09:39:59.494Z,2.35
2023-02-18T09:42:31.432Z,2.92
2023-02-18T09:45:00.822Z,2.15
2023-02-18T09:47:32.746Z,2.33
2023-02-18T09:50:04.035Z,1.95
2023-02-18T09:52:34.408Z,2.45
2023-02-18T09:55:01.755Z,2.17
2023-02-18T09:57:35.179Z,2.55
2023-02-18T10:00:06.634Z,2.15
2023-02-18T10:02:35.385Z,1.83
2023-02-18T10:05:03.105Z,2.78
2023-02-18T10:07:34.534Z,2.03
2023-02-18T10:10:08.398Z,2.50
2023-02-18T10:12:36.554Z,2.47
2023-02-18T10:15:03.672Z,2.85
2023-02-18T10:17:32.668Z,2.45
2023-02-18T10:22:30.666Z,2.20
2023-02-18T10:25:02.152Z,2.78
2023-02-18T10:27:31.260Z,3.17
2023-02-18T10:30:07.471Z,2.08
2023-02-18T10:32:40.286Z,2.13
2023-02-18T10:35:17.438Z,1.80
2023-02-18T10:37:57.054Z,2.15
2023-02-18T10:40:35.403Z,2.22
2023-02-18T10:43:12.630Z,2.45
2023-02-18T10:45:46.255Z,1.52
2023-02-18T10:48:29.678Z,2.67
2023-02-18T10:50:58.616Z,2.17
2023-02-18T10:56:00.168Z,2.35
2023-02-18T10:58:31.704Z,2.00
2023-02-18T11:01:00.004Z,2.13
2023-02-18T11:03:38.200Z,1.67
2023-02-18T11:06:14.995Z,2.10
2023-02-18T11:08:44.132Z,2.00
2023-02-18T11:11:18.081Z,1.75
2023-02-18T11:13:44.945Z,2.13
2023-02-18T11:16:12.703Z,3.10
2023-02-18T11:18:40.991Z,2.80
2023-02-18T11:21:23.900Z,2.58
2023-02-18T11:23:53.107Z,2.55
2023-02-18T11:26:28.203Z,2.97
2023-02-18T11:29:00.097Z,2.75
2023-02-18T11:31:39.941Z,2.20
2023-02-18T11:34:13.476Z,2.90
2023-02-18T11:36:40.229Z,2.85
2023-02-18T11:39:18.330Z,2.38
2023-02-18T11:41:53.353Z,3.22
2023-02-18T11:44:23.898Z,2.50
2023-02-18T11:47:02.414Z,2.25
2023-02-18T11:49:30.698Z,2.50
2023-02-18T11:52:19.107Z,2.47
2023-02-18T11:55:00.889Z,2.78
2023-02-18T11:57:29.322Z,2.25
2023-02-18T11:59:57.166Z,2.60
2023-02-18T12:02:32.610Z,2.63
2023-02-18T12:05:03.942Z,2.38
2023-02-18T12:07:39.357Z,2.03
2023-02-18T12:10:14.311Z,1.90
2023-02-18T12:12:51.538Z,2.80
2023-02-18T12:15:24.558Z,1.92
2023-02-18T12:18:09.253Z,2.40
2023-02-18T12:20:55.042Z,2.53
2023-02-18T12:23:29.493Z,2.72
2023-02-18T12:26:05.673Z,2.50
2023-02-18T12:28:45.931Z,3.35
2023-02-18T12:31:34.652Z,2.17
2023-02-18T12:36:58.620Z,2.90
2023-02-18T12:39:36.052Z,1.73
2023-02-18T12:42:25.423Z,2.63
2023-02-18T12:45:07.613Z,2.05
2023-02-18T12:48:05.507Z,3.05
2023-02-18T12:50:47.311Z,2.30
2023-02-18T12:53:41.898Z,3.35
2023-02-18T12:56:26.022Z,2.10
2023-02-18T12:59:00.566Z,2.90
2023-02-18T13:01:38.720Z,1.90
2023-02-18T13:04:39.880Z,2.50
2023-02-18T13:07:28.043Z,2.50
2023-02-18T13:10:28.628Z,3.53
2023-02-18T13:13:03.281Z,2.40
2023-02-18T13:15:37.808Z,2.50
2023-02-18T13:18:10.897Z,2.72
2023-02-18T13:20:42.429Z,2.53
2023-02-18T13:23:17.329Z,3.60
2023-02-18T13:25:45.385Z,2.55
2023-02-18T13:28:23.468Z,2.27
2023-02-18T13:30:59.080Z,2.45
2023-02-18T13:33:37.649Z,2.60
2023-02-18T13:36:11.646Z,3.25
2023-02-18T13:38:58.371Z,2.40
2023-02-18T13:41:26.973Z,2.60
2023-02-18T13:43:53.906Z,2.40
2023-02-18T13:46:22.219Z,2.47
2023-02-18T13:48:52.984Z,2.50
2023-02-18T13:51:30.390Z,2.83
2023-02-18T13:54:04.811Z,2.70
2023-02-18T13:56:33.911Z,2.35
2023-02-18T13:59:08.304Z,2.45
2023-02-18T14:01:41.497Z,2.67
2023-02-18T14:04:51.672Z,2.10
2023-02-18T14:07:38.366Z,2.95
2023-02-18T14:10:30.793Z,3.20
2023-02-18T14:13:24.322Z,2.90
2023-02-18T14:15:55.950Z,2.72
2023-02-18T14:18:31.202Z,2.92
2023-02-18T14:21:20.035Z,2.63
2023-02-18T14:26:29.464Z,2.55
2023-02-18T14:29:01.255Z,3.58
2023-02-18T14:31:34.419Z,3.10
2023-02-18T14:34:19.907Z,3.22
2023-02-18T14:36:55.869Z,3.00
2023-02-18T14:39:37.175Z,2.83
2023-02-18T14:42:11.984Z,2.92
2023-02-18T14:44:59.538Z,3.78
2023-02-18T14:47:35.762Z,3.35
2023-02-18T14:50:04.918Z,3.83
2023-02-18T14:52:38.094Z,2.78
2023-02-18T14:55:15.107Z,2.75
2023-02-18T14:57:46.265Z,3.03
2023-02-18T15:00:17.192Z,3.33
2023-02-18T15:02:44.050Z,3.33
2023-02-18T15:05:16.470Z,2.88
2023-02-18T15:07:55.379Z,2.80
2023-02-18T15:12:48.883Z,2.63
2023-02-18T15:15:17.247Z,3.38
2023-02-18T15:17:48.039Z,2.70
2023-02-18T15:20:16.115Z,2.58
2023-02-18T15:22:44.485Z,2.70
2023-02-18T15:25:13.193Z,2.90
2023-02-18T15:27:42.423Z,3.65
2023-02-18T15:30:18.445Z,3.95
2023-02-18T15:32:50.467Z,2.88
2023-02-18T15:35:19.866Z,2.97
2023-02-18T15:37:54.683Z,2.53
2023-02-18T15:40:24.547Z,3.10
2023-02-18T15:42:54.112Z,3.08
2023-02-18T15:45:23.252Z,3.33
2023-02-18T15:47:52.466Z,3.50
2023-02-18T15:50:21.428Z,2.42
2023-02-18T15:55:24.125Z,3.03
2023-02-18T15:57:52.253Z,3.10
2023-02-18T16:00:25.581Z,3.08
2023-02-18T16:02:56.611Z,4.47
2023-02-18T16:05:28.353Z,3.88
2023-02-18T16:08:01.036Z,3.58
2023-02-18T16:10:44.340Z,3.63
2023-02-18T16:13:15.523Z,3.83
2023-02-18T16:15:44.808Z,3.40
2023-02-18T16:18:28.790Z,4.90
2023-02-18T16:20:58.687Z,3.22
2023-02-18T16:23:40.268Z,3.80
2023-02-18T16:26:18.803Z,2.65
2023-02-18T16:28:46.249Z,3.42
2023-02-18T16:31:12.993Z,3.08
2023-02-18T16:33:39.924Z,2.88
2023-02-18T16:36:10.388Z,2.95
2023-02-18T16:38:38.591Z,2.85
2023-02-18T16:41:06.028Z,3.67
2023-02-18T16:43:32.783Z,3.05
2023-02-18T16:46:08.339Z,3.75
2023-02-18T16:48:37.246Z,1.88
2023-02-18T16:51:09.436Z,2.85
2023-02-18T16:53:37.672Z,3.22
2023-02-18T16:56:05.212Z,3.70
2023-02-18T16:58:32.028Z,4.22
2023-02-18T17:00:58.899Z,3.92
2023-02-18T17:03:25.663Z,2.78
2023-02-18T17:05:52.446Z,2.53
2023-02-18T17:08:21.578Z,3.72
2023-02-18T17:10:51.036Z,2.33
2023-02-18T17:13:19.591Z,3.40
2023-02-18T17:15:48.434Z,3.50
2023-02-18T17:18:17.267Z,3.90
2023-02-18T17:20:44.218Z,3.90
2023-02-18T17:23:14.284Z,3.67
2023-02-18T17:25:41.828Z,4.20
2023-02-18T17:28:10.256Z,3.03
2023-02-18T17:30:39.286Z,4.10
2023-02-18T17:35:33.449Z,3.70
2023-02-18T17:38:00.268Z,3.58
2023-02-18T17:40:28.681Z,4.18
2023-02-18T17:42:56.223Z,3.70
2023-02-18T17:45:28.265Z,4.35
2023-02-18T17:47:55.889Z,4.30
2023-02-18T17:50:22.820Z,4.45
2023-02-18T17:52:49.708Z,5.50
2023-02-18T17:55:22.947Z,3.97
2023-02-18T17:57:50.958Z,4.32
2023-02-18T18:00:20.600Z,4.17
2023-02-18T18:02:51.123Z,4.32
2023-02-18T18:05:21.250Z,4.75
2023-02-18T18:07:48.936Z,3.67
2023-02-18T18:10:16.874Z,4.47
2023-02-18T18:12:43.794Z,4.72
2023-02-18T18:15:24.179Z,5.78
2023-02-18T18:17:52.995Z,7.47
2023-02-18T18:20:20.720Z,6.30
2023-02-18T18:22:47.664Z,5.55
2023-02-18T18:25:18.915Z,5.78
2023-02-18T18:27:45.964Z,4.43
2023-02-18T18:30:13.824Z,4.80
2023-02-18T18:32:40.635Z,4.22
2023-02-18T18:35:18.903Z,4.57
2023-02-18T18:37:48.004Z,5.47
2023-02-18T18:40:15.143Z,6.07
2023-02-18T18:42:41.913Z,5.72
2023-02-18T18:45:16.772Z,6.75
2023-02-18T18:47:43.654Z,7.15
2023-02-18T18:50:10.462Z,4.93
2023-02-18T18:52:38.570Z,8.13
2023-02-18T18:55:19.657Z,7.60
2023-02-18T18:57:47.330Z,7.50
2023-02-18T19:00:16.091Z,6.97
2023-02-18T19:02:42.890Z,6.00
2023-02-18T19:05:18.323Z,6.70
2023-02-18T19:07:48.018Z,6.15
2023-02-18T19:10:15.350Z,7.25
2023-02-18T19:12:42.124Z,7.72
2023-02-18T19:15:12.655Z,7.97
2023-02-18T19:17:39.454Z,7.28
2023-02-18T19:20:06.888Z,5.28
2023-02-18T19:22:33.668Z,8.32
2023-02-18T19:25:01.805Z,6.00
2023-02-18T19:27:29.593Z,8.05
2023-02-18T19:29:56.517Z,8.25
2023-02-18T19:32:23.646Z,9.77
2023-02-18T19:34:50.367Z,9.73
2023-02-18T19:37:17.165Z,9.90
2023-02-18T19:39:43.874Z,9.32
2023-02-18T19:42:11.970Z,10.85
2023-02-18T19:44:38.895Z,12.00
2023-02-18T19:47:06.072Z,13.68
2023-02-18T19:49:32.859Z,11.63
2023-02-18T19:51:59.855Z,13.82
2023-02-18T19:54:28.131Z,14.27
2023-02-18T19:56:54.870Z,14.93
2023-02-18T19:59:23.433Z,15.07
2023-02-18T20:01:50.427Z,14.98
2023-02-18T20:04:17.200Z,17.73
2023-02-18T20:06:43.946Z,16.25
2023-02-18T20:09:11.439Z,17.77
2023-02-18T20:11:38.188Z,17.17
2023-02-18T20:14:05.018Z,17.65
2023-02-18T20:16:33.124Z,16.17
2023-02-18T20:18:59.944Z,17.03
2023-02-18T20:21:26.759Z,18.45
2023-02-18T20:23:53.955Z,19.48
2023-02-18T20:26:20.774Z,16.30
2023-02-18T20:28:47.863Z,18.23
2023-02-18T20:31:15.621Z,17.85
2023-02-18T20:33:44.206Z,17.65
2023-02-18T20:36:14.375Z,16.88
2023-02-18T20:38:41.308Z,16.60
2023-02-18T20:41:09.924Z,17.38
2023-02-18T20:43:36.901Z,19.42
2023-02-18T20:46:04.489Z,18.67
2023-02-18T20:48:31.545Z,19.27
2023-02-18T20:51:05.335Z,19.15
2023-02-18T20:53:35.151Z,19.60
2023-02-18T20:56:02.326Z,19.63
2023-02-18T20:58:29.712Z,18.15
2023-02-18T21:00:58.082Z,19.40
2023-02-18T21:03:24.882Z,20.38
2023-02-18T21:05:55.691Z,16.65
2023-02-18T21:08:25.265Z,20.35
2023-02-18T21:10:53.003Z,19.17
2023-02-18T21:13:19.944Z,22.20
2023-02-18T21:15:47.131Z,20.88
2023-02-18T21:18:14.772Z,20.45
2023-02-18T21:20:44.675Z,20.00
2023-02-18T21:23:11.584Z,18.42
2023-02-18T21:25:40.150Z,18.15
2023-02-18T21:28:07.624Z,16.63
2023-02-18T21:30:34.455Z,19.30
2023-02-18T21:33:01.254Z,15.43
2023-02-18T21:35:29.216Z,13.30
2023-02-18T21:37:55.961Z,16.75
2023-02-18T21:40:22.790Z,14.85
2023-02-18T21:42:52.202Z,15.45
2023-02-18T21:45:22.893Z,13.13
2023-02-18T21:47:49.767Z,14.32
2023-02-18T21:50:17.133Z,14.85
2023-02-18T21:52:43.952Z,16.27
2023-02-18T21:55:11.005Z,14.98
2023-02-18T21:57:38.089Z,18.40
2023-02-18T22:00:19.571Z,20.23
2023-02-18T22:02:47.001Z,16.33
2023-02-18T22:05:13.789Z,17.85
2023-02-18T22:07:40.564Z,19.13
2023-02-18T22:10:07.628Z,18.55
2023-02-18T22:12:34.596Z,22.92
2023-02-18T22:15:02.343Z,18.38
2023-02-18T22:17:30.701Z,21.58
2023-02-18T22:19:57.460Z,19.45
2023-02-18T22:22:25.210Z,19.35
2023-02-18T22:24:54.341Z,17.83
2023-02-18T22:27:21.158Z,17.55
2023-02-18T22:29:49.931Z,13.65
2023-02-18T22:32:16.815Z,18.25
2023-02-18T22:34:44.978Z,17.20
2023-02-18T22:37:11.822Z,18.48
2023-02-18T22:39:38.891Z,15.27
2023-02-18T22:42:05.717Z,14.30
2023-02-18T22:44:32.499Z,13.30
2023-02-18T22:46:59.255Z,11.13
2023-02-18T22:49:26.003Z,11.23
2023-02-18T22:51:54.661Z,9.07
2023-02-18T22:54:21.528Z,11.02
2023-02-18T22:56:48.861Z,11.55
2023-02-18T22:59:17.599Z,10.05
2023-02-18T23:01:46.654Z,9.52
2023-02-18T23:06:43.235Z,10.52
2023-02-18T23:11:40.365Z,8.77
2023-02-18T23:14:07.148Z,10.00
2023-02-18T23:16:34.388Z,8.45
2023-02-18T23:19:01.243Z,11.02
2023-02-18T23:21:28.000Z,8.05
2023-02-18T23:23:55.925Z,10.98
2023-02-18T23:26:25.622Z,10.18
2023-02-18T23:28:55.121Z,11.25
2023-02-18T23:31:24.387Z,11.20
2023-02-18T23:33:54.415Z,10.57
2023-02-18T23:36:24.283Z,10.60
2023-02-18T23:38:52.902Z,10.70
2023-02-18T23:41:21.013Z,11.52
2023-02-18T23:43:49.742Z,11.10
2023-02-18T23:46:18.961Z,10.38
2023-02-18T23:48:45.813Z,8.55
2023-02-18T23:51:14.599Z,11.32
2023-02-18T23:53:41.750Z,9.73
2023-02-18T23:56:13.801Z,12.93
2023-02-18T23:58:42.088Z,10.48
